Time;durP1;ratioP1;P1;durP2;ratioP2;P2;SDS_P1;SDS_P2;PMS_P1;PMS_P2;Temp;Humidity;BMP_temperature;BMP_pressure;BME280_temperature;BME280_humidity;BME280_pressure;Samples;Min_cycle;Max_cycle;Signal;HPM_P1;HPM_P2
2022/06/16 00:01:31;;;;;;;16.35;5.03;;;;;;;22.56;43.87;101056.81;5032997;28;20104;-59
2022/06/16 00:03:57;;;;;;;16.15;5.13;;;;;;;22.23;44.06;101050.97;5039985;28;20036;-58
2022/06/16 00:06:23;;;;;;;15.30;5.40;;;;;;;22.58;44.41;101043.69;5052914;28;20107;-59
2022/06/16 00:08:49;;;;;;;13.98;5.15;;;;;;;22.48;44.37;101047.28;5050279;28;20021;-58
2022/06/16 00:11:19;;;;;;;11.57;4.65;;;;;;;22.39;44.53;101052.53;5052986;28;20087;-59
2022/06/16 00:13:47;;;;;;;13.32;5.20;;;;;;;22.66;43.89;101048.59;5049707;22;20056;-59
2022/06/16 00:16:14;;;;;;;15.70;4.63;;;;;;;22.92;43.52;101035.59;5030858;28;20033;-59
2022/06/16 00:18:41;;;;;;;16.48;4.72;;;;;;;22.84;43.73;101049.81;5044451;28;20056;-59
2022/06/16 00:21:08;;;;;;;17.40;5.13;;;;;;;22.86;43.46;101039.44;5040576;28;20068;-59
2022/06/16 00:23:35;;;;;;;16.42;4.97;;;;;;;22.80;43.74;101046.84;5050704;28;20132;-59
2022/06/16 00:26:01;;;;;;;17.25;5.50;;;;;;;23.09;43.34;101040.66;5052666;28;20028;-59
2022/06/16 00:28:27;;;;;;;15.90;5.22;;;;;;;22.87;43.67;101058.28;5041843;28;20022;-59
2022/06/16 00:31:04;;;;;;;13.90;5.00;;;;;;;22.88;43.63;101048.19;5022332;28;20080;-59
2022/06/16 00:33:31;;;;;;;16.20;5.53;;;;;;;22.14;44.62;101033.53;5048320;28;20068;-59
2022/06/16 00:35:58;;;;;;;19.20;6.00;;;;;;;22.33;45.91;101026.38;5049612;28;20025;-59
2022/06/16 00:38:24;;;;;;;12.45;5.13;;;;;;;22.39;45.47;101033.44;5032719;28;20040;-59
2022/06/16 00:40:52;;;;;;;11.70;4.30;;;;;;;22.73;44.78;101046.34;5031452;28;20057;-59
2022/06/16 00:43:19;;;;;;;18.80;4.78;;;;;;;22.34;44.10;101043.56;5028162;28;20033;-62
2022/06/16 00:45:50;;;;;;;12.48;5.30;;;;;;;22.12;44.90;101025.63;5031518;28;20028;-64
2022/06/16 00:48:38;;;;;;;13.05;5.28;;;;;;;22.48;43.94;101021.94;5031285;28;20029;-63
2022/06/16 00:51:10;;;;;;;16.80;5.32;;;;;;;22.33;44.04;101015.47;5025796;28;20024;-64
2022/06/16 00:53:39;;;;;;;17.80;4.65;;;;;;;22.56;44.98;101018.63;5029825;28;20036;-63
2022/06/16 00:56:08;;;;;;;13.45;4.40;;;;;;;22.31;44.59;100998.56;5031316;28;20029;-60
2022/06/16 00:58:36;;;;;;;12.00;4.40;;;;;;;22.56;44.28;101018.63;5030004;28;20030;-60
2022/06/16 01:01:03;;;;;;;13.20;5.28;;;;;;;22.32;43.61;100992.03;5032109;28;20057;-60
2022/06/16 01:06:20;;;;;;;16.67;5.05;;;;;;;21.98;43.87;100991.03;5032089;28;20099;-65
2022/06/16 01:08:51;;;;;;;13.38;4.80;;;;;;;21.84;44.83;100986.19;5029612;28;20036;-64
2022/06/16 01:14:41;;;;;;;18.17;5.32;;;;;;;21.52;45.78;100989.25;5029244;28;20133;-66
2022/06/16 01:17:25;;;;;;;12.88;4.97;;;;;;;21.56;46.23;100982.19;5030904;28;20116;-65
2022/06/16 01:20:37;;;;;;;12.48;4.68;;;;;;;21.72;45.95;100972.06;5011114;28;20037;-65
2022/06/16 01:23:31;;;;;;;13.68;4.60;;;;;;;21.66;46.06;100988.72;5017785;28;20069;-60
2022/06/16 01:26:38;;;;;;;7.88;4.13;;;;;;;21.90;46.80;100994.34;5026400;28;20045;-63
2022/06/16 01:29:26;;;;;;;14.38;4.80;;;;;;;21.96;45.16;100983.16;4997614;28;20075;-64
2022/06/16 01:32:44;;;;;;;8.82;3.83;;;;;;;22.10;42.99;100977.97;5028186;28;20040;-63
2022/06/16 01:35:34;;;;;;;10.27;4.32;;;;;;;22.14;43.71;100988.00;5026225;28;20036;-63
2022/06/16 01:38:27;;;;;;;13.15;4.10;;;;;;;22.24;42.45;100991.78;5028760;28;20156;-63
2022/06/16 01:41:02;;;;;;;11.50;4.03;;;;;;;22.33;41.91;100996.38;5027917;28;20029;-67
2022/06/16 01:43:32;;;;;;;11.48;4.25;;;;;;;22.39;42.72;100997.97;5029231;28;20128;-67
2022/06/16 01:46:19;;;;;;;9.35;4.22;;;;;;;22.69;42.33;101006.25;5027406;28;20038;-68
2022/06/16 01:48:50;;;;;;;11.82;3.60;;;;;;;22.96;40.40;101001.19;5026641;28;20080;-68
2022/06/16 01:51:27;;;;;;;13.77;4.07;;;;;;;22.89;41.31;101001.50;5029801;28;20037;-68
2022/06/16 01:54:10;;;;;;;12.80;4.45;;;;;;;23.17;40.29;101010.03;5028161;28;20423;-68
2022/06/16 01:56:46;;;;;;;13.45;3.38;;;;;;;23.63;39.78;101001.44;5029492;28;20158;-66
2022/06/16 01:59:18;;;;;;;9.07;3.67;;;;;;;23.75;39.52;101001.84;5032582;28;20390;-66
2022/06/16 02:01:48;;;;;;;9.85;3.63;;;;;;;23.95;39.08;101007.06;5031646;28;20026;-66
2022/06/16 02:04:20;;;;;;;9.55;3.70;;;;;;;24.39;38.64;101006.00;5024314;28;20029;-66
2022/06/16 02:06:53;;;;;;;12.57;3.90;;;;;;;24.58;36.90;101010.66;5017018;28;20370;-66
2022/06/16 02:09:27;;;;;;;12.75;4.03;;;;;;;24.77;37.08;101016.97;5011757;28;20044;-66
2022/06/16 02:11:58;;;;;;;10.73;3.88;;;;;;;24.90;36.08;101005.25;5011333;28;20026;-66
2022/06/16 02:14:46;;;;;;;13.07;4.38;;;;;;;25.28;35.75;101003.28;5013196;28;20064;-66
2022/06/16 02:17:13;;;;;;;8.30;4.10;;;;;;;25.16;35.27;101002.94;5031394;28;20033;-67
2022/06/16 02:19:40;;;;;;;6.88;3.72;;;;;;;25.28;35.10;101007.94;5031205;28;20105;-66
2022/06/16 02:22:06;;;;;;;12.45;3.83;;;;;;;25.32;35.51;101008.16;5029363;28;20030;-63
2022/06/16 02:24:32;;;;;;;8.55;3.35;;;;;;;25.11;34.83;101004.97;5029919;28;20029;-66
2022/06/16 02:27:00;;;;;;;8.65;3.40;;;;;;;25.18;35.02;101008.94;5029749;28;20025;-66
2022/06/16 02:29:33;;;;;;;7.97;3.20;;;;;;;25.17;35.65;101010.06;5031234;28;20410;-67
2022/06/16 02:32:13;;;;;;;11.07;3.40;;;;;;;25.47;35.19;101008.69;5031210;28;20410;-67
2022/06/16 02:34:42;;;;;;;8.50;3.28;;;;;;;25.61;33.32;101005.19;5029376;28;20090;-66
2022/06/16 02:37:43;;;;;;;11.95;4.32;;;;;;;25.62;32.77;101015.81;5030525;28;20025;-67
2022/06/16 02:40:34;;;;;;;9.27;3.17;;;;;;;25.94;33.46;101009.47;5053577;28;20112;-67
2022/06/16 02:43:06;;;;;;;10.88;3.03;;;;;;;26.02;32.74;101013.44;5013760;28;20088;-67
2022/06/16 02:45:41;;;;;;;10.07;3.88;;;;;;;25.94;32.99;101009.47;5014719;28;20029;-67
2022/06/16 02:48:28;;;;;;;7.00;3.33;;;;;;;26.08;32.85;101003.97;5015123;28;20205;-67
2022/06/16 02:51:16;;;;;;;7.15;3.58;;;;;;;26.01;33.03;101007.13;5015060;28;20045;-67
2022/06/16 02:54:00;;;;;;;9.15;3.15;;;;;;;26.23;32.51;101002.84;5026833;28;20029;-68
2022/06/16 02:56:56;;;;;;;10.73;3.50;;;;;;;25.16;34.23;101002.16;5034622;28;20072;-67
2022/06/16 02:59:50;;;;;;;7.75;3.85;;;;;;;25.34;35.00;101009.47;5026005;28;20032;-67
2022/06/16 03:02:19;;;;;;;10.77;3.55;;;;;;;25.09;35.92;101004.44;5014767;28;20029;-68
2022/06/16 03:04:49;;;;;;;6.18;3.00;;;;;;;24.84;36.00;101014.66;5014327;28;20022;-67
2022/06/16 03:07:16;;;;;;;10.50;3.55;;;;;;;24.27;36.87;101019.28;5014692;28;20105;-68
2022/06/16 03:09:42;;;;;;;7.88;3.67;;;;;;;24.06;37.46;101012.44;5014827;28;20038;-67
2022/06/16 03:12:11;;;;;;;9.25;3.90;;;;;;;23.81;38.46;101014.34;5034229;28;20108;-68
2022/06/16 03:14:37;;;;;;;8.88;3.75;;;;;;;23.14;39.05;100996.94;5033694;28;20115;-68
2022/06/16 03:17:05;;;;;;;7.90;3.60;;;;;;;22.82;40.19;101001.00;5032794;28;20049;-68
2022/06/16 03:19:31;;;;;;;11.48;4.05;;;;;;;22.37;40.76;101005.59;5034066;28;20059;-68
2022/06/16 03:21:58;;;;;;;13.63;3.60;;;;;;;21.88;41.96;101025.44;5033977;28;20539;-68
2022/06/16 03:24:24;;;;;;;11.52;4.10;;;;;;;21.12;43.73;101011.06;5033547;28;20061;-68
2022/06/16 03:26:50;;;;;;;12.50;4.13;;;;;;;20.76;45.19;101011.81;5034124;28;20038;-68
2022/06/16 03:29:17;;;;;;;9.60;3.65;;;;;;;20.60;45.90;101014.78;5033853;28;20079;-68
2022/06/16 03:31:43;;;;;;;11.52;4.10;;;;;;;20.36;46.23;101014.44;5033846;28;20032;-68
2022/06/16 03:34:10;;;;;;;12.45;4.00;;;;;;;20.37;46.23;101021.50;5033595;28;20075;-68
2022/06/16 03:36:37;;;;;;;12.48;3.92;;;;;;;20.17;47.28;101017.63;5033578;28;20121;-68
2022/06/16 03:39:05;;;;;;;11.93;4.28;;;;;;;19.77;48.28;101021.78;5033746;28;20032;-68
2022/06/16 03:41:33;;;;;;;13.20;4.40;;;;;;;19.64;48.46;101024.94;5033659;28;20100;-68
2022/06/16 03:44:00;;;;;;;12.05;4.32;;;;;;;19.43;49.49;101017.69;5031966;28;20025;-68
2022/06/16 03:46:26;;;;;;;10.93;4.13;;;;;;;19.04;50.32;101028.78;5033516;28;20401;-68
2022/06/16 03:48:53;;;;;;;12.30;4.65;;;;;;;18.99;50.51;101035.00;5033327;28;20021;-68
2022/06/16 03:51:19;;;;;;;11.60;4.47;;;;;;;18.46;52.26;101024.91;5033345;28;20025;-67
2022/06/16 03:53:46;;;;;;;13.50;4.88;;;;;;;18.13;53.12;101023.97;5033333;28;20100;-67
2022/06/16 03:56:13;;;;;;;13.10;4.80;;;;;;;18.18;52.89;101028.66;5033828;28;20053;-67
2022/06/16 03:58:40;;;;;;;14.57;4.40;;;;;;;18.10;53.07;101037.19;5032481;28;20469;-67
2022/06/16 04:01:07;;;;;;;8.52;3.88;;;;;;;18.17;52.68;101030.53;5033619;28;20129;-67
2022/06/16 04:06:19;;;;;;;13.77;4.53;;;;;;;17.78;53.67;101046.00;5033069;28;20110;-67
2022/06/16 04:08:45;;;;;;;15.82;5.07;;;;;;;17.68;54.20;101052.03;5033179;28;20534;-67
2022/06/16 04:11:27;;;;;;;12.25;4.15;;;;;;;17.53;54.81;101040.16;5032908;28;20033;-67
2022/06/16 04:14:08;;;;;;;10.30;4.20;;;;;;;17.54;55.20;101042.59;5032263;28;20101;-67
2022/06/16 04:16:45;;;;;;;12.40;4.60;;;;;;;17.11;56.09;101025.16;5031996;28;20029;-67
2022/06/16 04:19:13;;;;;;;20.65;5.70;;;;;;;17.07;56.49;101029.41;5033234;28;20029;-68
2022/06/16 04:21:41;;;;;;;19.80;4.45;;;;;;;17.02;56.29;101029.31;5032521;28;20026;-67
2022/06/16 04:24:09;;;;;;;12.07;4.60;;;;;;;17.03;56.37;101039.06;5031412;28;20481;-68
2022/06/16 04:26:38;;;;;;;13.65;5.10;;;;;;;17.08;56.28;101036.47;5031758;28;20029;-68
2022/06/16 04:29:10;;;;;;;16.25;4.10;;;;;;;16.84;57.12;101045.78;5031639;28;20027;-68
2022/06/16 04:31:38;;;;;;;9.82;4.28;;;;;;;16.87;56.85;101039.88;5032848;28;20053;-68
2022/06/16 04:34:05;;;;;;;17.35;5.57;;;;;;;16.74;56.91;101051.81;5032511;28;20029;-68
2022/06/16 04:36:31;;;;;;;11.45;4.85;;;;;;;16.67;57.33;101055.69;5029673;28;20382;-68
2022/06/16 04:38:59;;;;;;;11.90;4.03;;;;;;;16.72;57.13;101050.41;5032629;28;20028;-68
2022/06/16 04:41:25;;;;;;;10.02;4.35;;;;;;;16.77;56.79;101055.91;5030821;28;20096;-68
2022/06/16 04:43:51;;;;;;;9.75;4.43;;;;;;;16.70;56.98;101060.59;5032242;28;20033;-67
2022/06/16 04:46:19;;;;;;;15.88;4.20;;;;;;;16.69;56.76;101059.78;5031029;28;20033;-68
2022/06/16 04:48:46;;;;;;;12.52;4.50;;;;;;;16.61;56.61;101057.47;5032470;28;20028;-68
2022/06/16 04:51:13;;;;;;;12.35;3.88;;;;;;;16.69;56.87;101058.97;5029880;28;20108;-68
2022/06/16 04:53:39;;;;;;;13.15;4.55;;;;;;;16.41;58.16;101057.88;5030513;28;20045;-68
2022/06/16 04:56:07;;;;;;;16.30;4.70;;;;;;;16.55;58.04;101075.47;5029113;28;20048;-68
2022/06/16 04:58:33;;;;;;;14.40;4.28;;;;;;;16.48;58.20;101092.84;5052301;28;20029;-67
2022/06/16 05:00:59;;;;;;;10.30;3.92;;;;;;;16.51;57.89;101087.00;5044348;28;20029;-68
2022/06/16 05:03:28;;;;;;;13.23;4.38;;;;;;;16.50;58.01;101078.06;5030896;28;20030;-68
2022/06/16 05:05:56;;;;;;;16.60;4.50;;;;;;;16.54;57.33;101084.63;5031754;28;20025;-68
2022/06/16 05:08:22;;;;;;;13.63;4.40;;;;;;;16.53;57.49;101082.16;5030726;28;20026;-68
2022/06/16 05:10:51;;;;;;;20.30;4.65;;;;;;;16.57;57.20;101084.16;5031624;28;20075;-68
2022/06/16 05:13:18;;;;;;;10.55;4.00;;;;;;;16.42;57.27;101091.94;5030399;28;20563;-68
2022/06/16 05:15:44;;;;;;;15.13;4.35;;;;;;;16.32;57.43;101083.59;5031913;28;20083;-67
2022/06/16 05:18:14;;;;;;;13.13;4.32;;;;;;;16.15;57.74;101096.19;5030518;28;20470;-68
2022/06/16 05:20:44;;;;;;;10.02;4.15;;;;;;;16.15;57.45;101080.00;5030431;28;20059;-68
2022/06/16 05:23:11;;;;;;;11.75;4.07;;;;;;;16.04;57.25;101085.16;5031676;28;20115;-68
2022/06/16 05:25:39;;;;;;;11.30;4.00;;;;;;;16.09;57.06;101101.50;5031814;28;20390;-68
2022/06/16 05:28:07;;;;;;;14.40;4.70;;;;;;;15.88;57.35;101094.00;5031553;28;20386;-68
2022/06/16 05:30:33;;;;;;;11.55;4.38;;;;;;;15.84;57.23;101096.34;5031703;28;20049;-68
2022/06/16 05:33:02;;;;;;;9.85;4.30;;;;;;;15.88;57.18;101096.72;5031513;28;20045;-68
2022/06/16 05:35:28;;;;;;;11.45;4.10;;;;;;;15.81;57.19;101096.81;5031568;28;20096;-68
2022/06/16 05:37:55;;;;;;;7.30;3.47;;;;;;;15.90;57.29;101099.16;5015967;28;20026;-68
2022/06/16 05:40:21;;;;;;;9.93;3.85;;;;;;;15.88;57.27;101095.88;5012242;28;20735;-68
2022/06/16 05:42:47;;;;;;;15.57;4.30;;;;;;;15.73;57.84;101080.97;5013038;28;20037;-68
2022/06/16 05:45:14;;;;;;;11.63;4.68;;;;;;;15.66;58.11;101084.84;5031375;28;20049;-69
2022/06/16 05:47:40;;;;;;;15.82;4.38;;;;;;;15.64;57.80;101095.03;5031421;28;20080;-69
2022/06/16 05:50:07;;;;;;;14.27;3.95;;;;;;;15.64;58.11;101095.84;5031547;28;20037;-68
2022/06/16 05:52:34;;;;;;;9.70;4.07;;;;;;;15.56;58.21;101097.00;5030931;28;20028;-68
2022/06/16 05:55:00;;;;;;;12.73;4.20;;;;;;;15.48;58.55;101078.44;5030467;28;20021;-68
2022/06/16 05:57:26;;;;;;;12.40;4.55;;;;;;;15.33;58.98;101078.09;5030745;28;20025;-69
2022/06/16 06:00:13;;;;;;;13.35;4.30;;;;;;;15.40;58.77;101081.50;5028846;28;20037;-69
2022/06/16 06:02:39;;;;;;;14.55;4.38;;;;;;;15.48;58.07;101081.13;5028690;28;20041;-69
2022/06/16 06:05:07;;;;;;;12.23;3.92;;;;;;;15.44;58.04;101079.16;5028873;28;20040;-68
2022/06/16 06:16:25;;;;;;;18.88;4.57;;;;;;;15.53;57.70;101088.53;5029124;28;20049;-68
2022/06/16 06:18:34;;;;;;;15.25;4.65;;;;;;;15.43;58.54;101088.28;5033537;28;20041;-70
2022/06/16 06:21:00;;;;;;;12.93;4.53;;;;;;;15.38;58.88;101091.69;5032892;28;20052;-69
2022/06/16 06:23:26;;;;;;;11.52;4.32;;;;;;;15.28;59.35;101080.66;5032419;28;20112;-69
2022/06/16 06:25:53;;;;;;;15.50;5.13;;;;;;;15.14;59.66;101084.59;5033476;28;20037;-69
2022/06/16 06:28:21;;;;;;;9.68;4.10;;;;;;;15.26;59.03;101093.53;5033059;28;20025;-69
2022/06/16 06:30:48;;;;;;;11.73;4.35;;;;;;;15.29;58.98;101095.78;5032662;28;20112;-69
2022/06/16 06:33:14;;;;;;;15.82;4.75;;;;;;;15.30;58.70;101100.94;5032384;28;20032;-69
2022/06/16 06:35:40;;;;;;;12.60;4.30;;;;;;;15.31;58.81;101082.88;5032328;28;20029;-69
2022/06/16 06:38:07;;;;;;;13.25;4.28;;;;;;;15.33;59.14;101094.25;5023691;28;20042;-69
2022/06/16 06:40:35;;;;;;;9.20;4.05;;;;;;;15.08;59.88;101086.31;5015146;28;20493;-69
2022/06/16 06:43:03;;;;;;;9.43;3.80;;;;;;;15.19;59.76;101090.94;5015069;28;20394;-69
2022/06/16 06:45:30;;;;;;;16.15;5.15;;;;;;;14.93;60.66;101100.22;5014585;28;20101;-69
2022/06/16 06:47:56;;;;;;;15.15;4.47;;;;;;;14.96;60.29;101089.00;5020728;28;20485;-69
2022/06/16 06:50:29;;;;;;;9.88;4.03;;;;;;;15.03;60.47;101097.78;5034926;28;20057;-69
2022/06/16 06:52:56;;;;;;;14.18;4.00;;;;;;;15.00;60.57;101097.44;5034973;28;20104;-69
2022/06/16 06:55:23;;;;;;;12.68;4.53;;;;;;;14.96;60.21;101097.06;5034684;28;20039;-69
2022/06/16 06:57:54;;;;;;;10.27;3.85;;;;;;;15.01;60.64;101094.50;5033155;28;20490;-69
2022/06/16 07:00:22;;;;;;;14.80;4.30;;;;;;;15.02;60.31;101092.63;5033070;28;20370;-68
2022/06/16 07:02:49;;;;;;;13.40;4.60;;;;;;;15.04;60.14;101101.31;5034576;28;20037;-69
2022/06/16 07:05:18;;;;;;;11.98;4.28;;;;;;;14.90;60.14;101095.28;5034529;28;20029;-69
2022/06/16 07:07:45;;;;;;;10.63;3.70;;;;;;;14.89;60.30;101096.34;5033189;28;20037;-68
2022/06/16 07:10:12;;;;;;;10.75;4.15;;;;;;;14.98;60.22;101103.03;5014479;28;20084;-69
2022/06/16 07:12:39;;;;;;;12.30;4.82;;;;;;;14.96;60.26;101098.94;5014627;28;20018;-69
2022/06/16 07:15:06;;;;;;;20.25;4.68;;;;;;;14.89;60.61;101098.22;5014029;28;20088;-69
2022/06/16 07:17:32;;;;;;;13.75;3.78;;;;;;;14.84;60.89;101096.22;5014350;28;20112;-68
2022/06/16 07:19:58;;;;;;;14.93;4.38;;;;;;;14.82;60.76;101092.91;5014569;28;20030;-69
2022/06/16 07:22:25;;;;;;;14.20;4.65;;;;;;;14.82;60.59;101100.16;5013899;28;20040;-70
2022/06/16 07:24:51;;;;;;;11.77;4.50;;;;;;;14.81;61.15;101096.66;5015777;28;20022;-71
2022/06/16 07:27:20;;;;;;;16.83;4.55;;;;;;;14.87;60.93;101103.81;5034036;28;20068;-70
2022/06/16 07:29:49;;;;;;;11.05;4.60;;;;;;;14.65;61.38;101105.34;5033842;28;20025;-70
2022/06/16 07:32:17;;;;;;;12.05;4.00;;;;;;;14.69;61.26;101112.78;5033908;28;20033;-71
2022/06/16 07:34:44;;;;;;;13.98;4.43;;;;;;;14.66;61.56;101102.47;5033679;28;20041;-70
2022/06/16 07:37:11;;;;;;;13.75;4.32;;;;;;;14.69;61.53;101099.28;5024292;28;20100;-69
2022/06/16 07:39:38;;;;;;;15.23;5.10;;;;;;;14.69;61.30;101090.41;5013951;28;20037;-70
2022/06/16 07:42:05;;;;;;;10.35;4.20;;;;;;;14.38;62.63;101083.28;5017578;28;20063;-70
2022/06/16 07:44:32;;;;;;;27.70;5.00;;;;;;;14.44;62.56;101091.28;5033276;28;20022;-70
2022/06/16 07:46:58;;;;;;;12.95;4.93;;;;;;;14.68;62.09;101096.84;5033653;28;20096;-70
2022/06/16 07:49:27;;;;;;;13.43;4.18;;;;;;;14.45;62.71;101092.13;5033434;28;20021;-70
2022/06/16 07:51:57;;;;;;;14.43;5.50;;;;;;;14.57;62.60;101092.22;5033703;28;20030;-70
2022/06/16 07:54:25;;;;;;;10.75;4.20;;;;;;;14.49;62.46;101085.25;5031519;28;20440;-70
2022/06/16 07:56:51;;;;;;;10.05;3.95;;;;;;;14.41;63.01;101093.59;5033421;28;20092;-70
2022/06/16 07:59:18;;;;;;;15.48;4.85;;;;;;;14.41;62.91;101090.91;5032387;28;20056;-69
2022/06/16 08:01:44;;;;;;;14.45;4.40;;;;;;;14.43;62.75;101089.63;5032079;28;20030;-70
2022/06/16 08:04:11;;;;;;;13.82;4.60;;;;;;;14.43;62.73;101092.31;5033225;28;20029;-69
2022/06/16 08:06:38;;;;;;;15.75;4.13;;;;;;;14.51;62.54;101086.69;5031402;28;20367;-69
2022/06/16 08:09:06;;;;;;;17.70;4.78;;;;;;;14.51;62.71;101092.06;5033346;28;20025;-70
2022/06/16 08:14:17;;;;;;;16.65;4.78;;;;;;;14.26;63.72;101084.03;5012973;28;20066;-70
2022/06/16 08:16:45;;;;;;;11.05;3.92;;;;;;;14.14;63.82;101061.59;5021218;28;20500;-71
2022/06/16 08:19:11;;;;;;;12.15;4.78;;;;;;;14.15;63.70;101070.47;5033294;28;20106;-70
2022/06/16 08:21:38;;;;;;;9.27;4.15;;;;;;;14.36;63.67;101078.13;5033118;28;20040;-70
2022/06/16 08:24:06;;;;;;;23.17;4.47;;;;;;;14.34;63.58;101058.69;5031336;28;20036;-69
2022/06/16 08:26:33;;;;;;;15.80;4.65;;;;;;;14.24;64.07;101075.34;5031347;28;20029;-69
2022/06/16 08:29:00;;;;;;;15.10;4.60;;;;;;;14.25;64.05;101074.31;5031708;28;20030;-69
2022/06/16 08:31:26;;;;;;;17.10;5.78;;;;;;;14.33;63.65;101073.19;5032951;28;20025;-69
2022/06/16 08:33:53;;;;;;;11.38;3.95;;;;;;;14.27;63.82;101074.94;5032527;28;20021;-69
2022/06/16 08:36:23;;;;;;;16.70;4.38;;;;;;;14.12;64.66;101076.34;5027807;28;20029;-70
2022/06/16 08:38:49;;;;;;;13.00;4.65;;;;;;;14.00;64.67;101066.31;5011653;28;20025;-70
2022/06/16 08:41:32;;;;;;;15.18;4.90;;;;;;;14.15;64.51;101081.25;5011522;28;20026;-70
2022/06/16 08:44:05;;;;;;;17.05;4.88;;;;;;;14.16;64.21;101093.69;5012672;28;20034;-70
2022/06/16 08:47:10;;;;;;;11.32;4.72;;;;;;;14.22;64.16;101093.63;5028063;28;20030;-69
2022/06/16 08:49:50;;;;;;;9.57;4.07;;;;;;;14.23;63.97;101089.06;4963909;28;20066;-68
2022/06/16 08:52:33;;;;;;;14.05;5.03;;;;;;;14.18;64.26;101092.41;4952280;29;20515;-69
2022/06/16 08:55:20;;;;;;;13.65;4.47;;;;;;;13.94;64.93;101091.41;4992974;28;20041;-69
2022/06/16 08:58:13;;;;;;;15.55;4.75;;;;;;;14.00;64.85;101084.31;5012445;28;20470;-69
2022/06/16 09:00:47;;;;;;;13.90;4.85;;;;;;;13.94;64.83;101075.28;5012613;28;20052;-69
2022/06/16 09:03:44;;;;;;;13.57;4.68;;;;;;;14.07;64.73;101073.50;5013037;28;20034;-69
2022/06/16 09:06:28;;;;;;;15.75;4.05;;;;;;;14.08;64.46;101080.50;5009432;28;20038;-70
2022/06/16 09:09:09;;;;;;;16.83;4.97;;;;;;;13.98;64.82;101068.38;5031489;28;20026;-70
2022/06/16 09:11:39;;;;;;;12.07;4.47;;;;;;;13.79;65.61;101072.09;5031857;28;20100;-70
2022/06/16 09:14:08;;;;;;;15.57;4.80;;;;;;;13.87;65.38;101070.97;5031531;28;20099;-68
2022/06/16 09:16:55;;;;;;;14.88;4.25;;;;;;;13.96;64.90;101077.72;5030690;28;20030;-69
2022/06/16 09:19:35;;;;;;;12.57;4.50;;;;;;;14.00;64.66;101073.56;5031955;28;20026;-69
2022/06/16 09:22:14;;;;;;;12.77;4.57;;;;;;;13.97;64.95;101074.81;5032029;28;20033;-69
2022/06/16 09:24:58;;;;;;;10.95;4.13;;;;;;;13.99;64.71;101085.34;5031116;28;20060;-69
2022/06/16 09:27:50;;;;;;;12.57;4.35;;;;;;;13.94;65.10;101080.66;5031975;28;20028;-69
2022/06/16 09:30:20;;;;;;;19.33;4.78;;;;;;;14.07;64.51;101066.22;5031765;28;20052;-69
2022/06/16 09:33:16;;;;;;;12.93;4.82;;;;;;;13.63;65.79;101061.91;5031718;28;20087;-69
2022/06/16 09:36:10;;;;;;;16.52;4.53;;;;;;;13.73;65.71;101070.31;5031837;28;20022;-69
2022/06/16 09:38:43;;;;;;;14.00;5.00;;;;;;;13.74;65.75;101061.19;5012149;28;20041;-69
2022/06/16 09:44:18;;;;;;;17.55;5.00;;;;;;;13.78;65.38;101081.22;5031556;28;20044;-69
2022/06/16 09:46:53;;;;;;;14.20;5.22;;;;;;;13.77;65.52;101073.34;5035374;28;20018;-69
2022/06/16 09:49:40;;;;;;;13.95;4.53;;;;;;;13.67;66.17;101072.00;5038169;28;20022;-69
2022/06/16 09:52:29;;;;;;;16.38;4.95;;;;;;;13.70;66.58;101070.72;5038271;28;20029;-70
2022/06/16 09:55:01;;;;;;;15.20;4.05;;;;;;;13.62;66.88;101061.09;5036520;28;20048;-69
2022/06/16 09:57:36;;;;;;;14.80;4.43;;;;;;;13.58;67.00;101064.44;5035708;28;20032;-69
2022/06/16 10:00:11;;;;;;;14.10;4.72;;;;;;;13.69;66.54;101079.84;5036198;28;20025;-69
2022/06/16 10:02:49;;;;;;;;;;;;;;;13.51;67.16;101072.56;5070632;23;20064;-69
2022/06/16 10:05:23;;;;;;;16.55;4.18;;;;;;;13.44;67.68;101053.78;5077935;28;19912;-69
2022/06/16 10:07:59;;;;;;;11.23;4.15;;;;;;;13.47;67.67;101064.09;5076873;28;20043;-69
2022/06/16 10:10:41;;;;;;;14.55;4.15;;;;;;;13.52;67.30;101076.06;5076991;28;20029;-70
2022/06/16 10:13:46;;;;;;;14.20;4.57;;;;;;;13.52;67.39;101074.19;5077590;28;20025;-69
2022/06/16 10:16:23;;;;;;;13.93;4.60;;;;;;;13.58;67.05;101064.44;4999503;28;20034;-69
2022/06/16 10:18:50;;;;;;;12.13;4.55;;;;;;;13.58;66.98;101072.50;5016040;28;20217;-69
2022/06/16 10:21:17;;;;;;;13.70;4.30;;;;;;;13.59;66.65;101071.44;5040476;28;20032;-69
2022/06/16 10:23:50;;;;;;;18.75;4.97;;;;;;;13.67;66.52;101069.31;5056125;28;20025;-69
2022/06/16 10:26:17;;;;;;;12.70;4.45;;;;;;;13.75;66.22;101070.88;5057984;28;20108;-69
2022/06/16 10:29:05;;;;;;;13.57;4.22;;;;;;;13.59;66.35;101074.13;5054611;28;20025;-69
2022/06/16 10:31:41;;;;;;;12.50;4.28;;;;;;;13.74;65.95;101074.63;5066313;28;20035;-69
2022/06/16 10:34:34;;;;;;;14.52;4.30;;;;;;;13.79;65.73;101080.19;5076287;28;20492;-69
2022/06/16 10:37:40;;;;;;;14.05;4.03;;;;;;;13.69;66.40;101091.44;5069058;28;20486;-69
2022/06/16 10:40:36;;;;;;;12.15;4.40;;;;;;;13.67;66.10;101087.31;4976503;28;20078;-69
2022/06/16 10:43:15;;;;;;;14.45;4.70;;;;;;;13.56;66.63;101080.78;4973083;28;20085;-69
2022/06/16 10:45:53;;;;;;;12.88;5.40;;;;;;;13.58;66.62;101075.19;5039652;28;20428;-69
2022/06/16 10:48:29;;;;;;;10.10;5.50;;;;;;;13.39;67.67;101068.94;5064541;28;20098;-68
2022/06/16 10:51:13;;;;;;;22.48;6.63;;;;;;;13.32;68.10;101076.22;5077689;28;20027;-68
2022/06/16 10:54:03;;;;;;;11.35;5.13;;;;;;;13.39;67.80;101080.53;5077288;28;20024;-69
2022/06/16 10:56:30;;;;;;;15.85;4.90;;;;;;;13.31;67.86;101075.38;5077652;28;20024;-69
2022/06/16 10:59:09;;;;;;;8.98;4.20;;;;;;;13.25;68.41;101083.50;5073944;28;20024;-68
2022/06/16 11:01:39;;;;;;;15.50;4.38;;;;;;;13.47;67.79;101088.31;5074100;28;20048;-69
2022/06/16 11:04:18;;;;;;;12.82;3.97;;;;;;;13.56;67.07;101085.34;5073835;28;20024;-69
2022/06/16 11:06:54;;;;;;;14.18;4.88;;;;;;;13.50;67.23;101080.84;5072388;28;20052;-69
2022/06/16 11:09:32;;;;;;;9.85;3.97;;;;;;;13.31;67.96;101079.94;5074198;28;20029;-69
2022/06/16 11:12:02;;;;;;;10.18;4.45;;;;;;;13.44;67.58;101082.56;5072961;28;20089;-69
2022/06/16 11:14:47;;;;;;;13.55;4.57;;;;;;;13.38;67.86;101097.69;5074001;28;20028;-69
2022/06/16 11:17:27;;;;;;;9.73;3.97;;;;;;;13.41;67.42;101089.19;5074219;28;20413;-69
2022/06/16 11:20:48;;;;;;;10.73;4.18;;;;;;;13.45;67.55;101078.81;5031946;28;20045;-69
2022/06/16 11:23:42;;;;;;;12.13;3.83;;;;;;;13.34;67.97;101079.53;5031444;28;20094;-69
2022/06/16 11:26:20;;;;;;;16.40;4.22;;;;;;;13.41;67.81;101078.41;5031749;28;20037;-69
2022/06/16 11:28:56;;;;;;;12.00;4.47;;;;;;;13.37;67.79;101071.81;5031925;28;20038;-69
2022/06/16 11:31:41;;;;;;;12.88;4.68;;;;;;;13.45;67.41;101076.94;5031752;28;20592;-68
2022/06/16 11:34:22;;;;;;;12.60;3.90;;;;;;;13.31;67.66;101074.56;5031510;28;20505;-68
2022/06/16 11:37:09;;;;;;;11.70;3.92;;;;;;;13.20;68.26;101066.13;5031247;28;20025;-68
2022/06/16 11:39:42;;;;;;;10.82;3.88;;;;;;;13.16;68.34;101077.56;5032934;28;20034;-69
2022/06/16 11:42:26;;;;;;;13.88;4.30;;;;;;;13.18;68.30;101076.28;5033652;28;20034;-69
2022/06/16 11:45:12;;;;;;;14.00;4.60;;;;;;;13.33;67.65;101075.19;5032061;28;20048;-68
2022/06/16 11:48:16;;;;;;;;;;;;;;;13.35;67.33;101070.41;5030227;28;20061;-68
2022/06/16 11:50:58;;;;;;;8.80;3.65;;;;;;;13.35;67.08;101068.53;4987735;28;19913;-69
2022/06/16 11:53:39;;;;;;;15.00;4.25;;;;;;;13.34;67.20;101069.59;4972611;28;20529;-69
2022/06/16 11:56:22;;;;;;;11.88;4.10;;;;;;;13.27;67.15;101063.44;5003927;28;20100;-69
2022/06/16 11:58:51;;;;;;;11.77;4.65;;;;;;;13.42;66.90;101063.94;5072349;28;20493;-68
2022/06/16 12:01:29;;;;;;;12.52;4.60;;;;;;;13.32;67.13;101065.47;5072053;28;20052;-69
2022/06/16 12:04:10;;;;;;;13.73;4.20;;;;;;;13.40;67.15;101059.81;5073293;28;20358;-69
2022/06/16 12:07:04;;;;;;;14.85;4.28;;;;;;;13.43;66.83;101062.88;5073189;28;20500;-69
2022/06/16 12:09:42;;;;;;;10.02;4.25;;;;;;;13.39;67.57;101064.38;5073577;28;20024;-68
2022/06/16 12:12:41;;;;;;;11.20;4.43;;;;;;;13.23;68.09;101064.09;5073508;28;20048;-69